createdAt,value
2022-10-03T00:00:50.765Z,9.6
2022-10-03T00:02:51.092Z,9.6
2022-10-03T00:04:50.510Z,9.5
2022-10-03T00:06:50.750Z,9.5
2022-10-03T00:08:50.704Z,9.5
2022-10-03T00:10:50.625Z,9.5
2022-10-03T00:12:50.661Z,9.5
2022-10-03T00:14:50.683Z,9.5
2022-10-03T00:16:49.979Z,9.4
2022-10-03T00:18:50.177Z,9.3
2022-10-03T00:20:50.245Z,9.4
2022-10-03T00:22:50.368Z,9.3
2022-10-03T00:24:50.534Z,9.3
2022-10-03T00:26:49.982Z,9.3
2022-10-03T00:28:50.111Z,9.3
2022-10-03T00:30:50.337Z,9.3
2022-10-03T00:32:50.413Z,9.3
2022-10-03T00:34:50.893Z,9.2
2022-10-03T00:36:50.387Z,9.2
2022-10-03T00:38:50.584Z,9.1
2022-10-03T00:40:50.669Z,9.1
2022-10-03T00:42:50.521Z,9.1
2022-10-03T00:44:50.896Z,9.1
2022-10-03T00:46:50.658Z,9.1
2022-10-03T00:48:50.913Z,9.1
2022-10-03T00:50:50.052Z,9.1
2022-10-03T00:52:50.066Z,9.1
2022-10-03T00:54:50.106Z,9.1
2022-10-03T00:56:50.337Z,9.1
2022-10-03T00:58:50.274Z,9.1
2022-10-03T01:00:50.479Z,9.1
2022-10-03T01:02:50.703Z,9.1
2022-10-03T01:04:49.991Z,9.1
2022-10-03T01:06:50.389Z,9.1
2022-10-03T01:08:50.459Z,9.1
2022-10-03T01:10:50.622Z,9.0
2022-10-03T01:12:50.699Z,9.0
2022-10-03T01:14:50.633Z,9.0
2022-10-03T01:16:49.984Z,8.9
2022-10-03T01:18:50.876Z,8.9
2022-10-03T01:20:50.855Z,8.9
2022-10-03T01:22:50.915Z,8.9
2022-10-03T01:24:50.920Z,8.9
2022-10-03T01:26:50.275Z,8.9
2022-10-03T01:28:50.597Z,8.9
2022-10-03T01:30:50.891Z,8.9
2022-10-03T01:32:50.886Z,8.9
2022-10-03T01:34:50.413Z,8.8
2022-10-03T01:36:50.758Z,8.8
2022-10-03T01:38:50.725Z,8.8
2022-10-03T01:40:50.725Z,8.8
2022-10-03T01:42:50.804Z,8.7
2022-10-03T01:44:50.700Z,8.7
2022-10-03T01:46:50.140Z,8.7
2022-10-03T01:48:50.111Z,8.7
2022-10-03T01:50:49.982Z,8.7
2022-10-03T01:52:50.103Z,8.7
2022-10-03T01:54:50.002Z,8.7
2022-10-03T01:56:50.438Z,8.7
2022-10-03T01:58:50.388Z,8.7
2022-10-03T02:00:50.687Z,8.7
2022-10-03T02:02:49.969Z,8.6
2022-10-03T02:04:50.541Z,8.6
2022-10-03T02:06:49.941Z,8.5
2022-10-03T02:08:50.298Z,8.5
2022-10-03T02:10:50.306Z,8.5
2022-10-03T02:12:50.340Z,8.5
2022-10-03T02:14:50.305Z,8.5
2022-10-03T02:16:50.584Z,8.5
2022-10-03T02:18:50.739Z,8.5
2022-10-03T02:20:50.649Z,8.5
2022-10-03T02:22:50.647Z,8.5
2022-10-03T02:24:50.609Z,8.4
2022-10-03T02:26:50.772Z,8.4
2022-10-03T02:28:50.804Z,8.4
2022-10-03T02:30:50.698Z,8.4
2022-10-03T02:32:50.900Z,8.3
2022-10-03T02:34:50.175Z,8.3
2022-10-03T02:36:50.482Z,8.3
2022-10-03T02:38:50.486Z,8.3
2022-10-03T02:40:50.423Z,8.3
2022-10-03T02:42:50.299Z,8.4
2022-10-03T02:44:50.283Z,8.4
2022-10-03T02:46:50.195Z,8.4
2022-10-03T02:48:50.285Z,8.4
2022-10-03T02:50:50.163Z,8.4
2022-10-03T02:52:50.240Z,8.4
2022-10-03T02:54:50.251Z,8.4
2022-10-03T02:56:50.822Z,8.4
2022-10-03T02:58:50.827Z,8.5
2022-10-03T03:00:50.146Z,8.5
2022-10-03T03:02:50.451Z,8.5
2022-10-03T03:04:50.055Z,8.6
2022-10-03T03:06:50.323Z,8.6
2022-10-03T03:08:50.826Z,8.6
2022-10-03T03:10:50.612Z,8.6
2022-10-03T03:12:50.837Z,8.6
2022-10-03T03:14:50.745Z,8.6
2022-10-03T03:16:50.202Z,8.6
2022-10-03T03:18:50.174Z,8.6
2022-10-03T03:20:50.255Z,8.6
2022-10-03T03:22:50.425Z,8.6
2022-10-03T03:24:50.436Z,8.6
2022-10-03T03:26:50.653Z,8.6
2022-10-03T03:28:56.214Z,8.6
2022-10-03T03:30:50.474Z,8.6
2022-10-03T03:32:50.374Z,8.6
2022-10-03T03:34:50.124Z,8.6
2022-10-03T03:36:50.417Z,8.5
2022-10-03T03:38:50.276Z,8.6
2022-10-03T03:40:50.175Z,8.5
2022-10-03T03:42:50.051Z,8.5
2022-10-03T03:44:50.012Z,8.5
2022-10-03T03:46:50.316Z,8.5
2022-10-03T03:48:50.241Z,8.4
2022-10-03T03:50:50.359Z,8.4
2022-10-03T03:52:50.341Z,8.4
2022-10-03T03:54:50.194Z,8.4
2022-10-03T03:56:50.317Z,8.4
2022-10-03T03:58:50.255Z,8.4
2022-10-03T04:00:50.647Z,8.4
2022-10-03T04:02:50.611Z,8.4
2022-10-03T04:04:50.002Z,8.3
2022-10-03T04:06:50.206Z,8.3
2022-10-03T04:08:50.071Z,8.3
2022-10-03T04:10:50.251Z,8.3
2022-10-03T04:12:50.156Z,8.2
2022-10-03T04:14:50.300Z,8.2
2022-10-03T04:16:50.912Z,8.2
2022-10-03T04:18:49.986Z,8.2
2022-10-03T04:20:50.002Z,8.1
2022-10-03T04:22:50.035Z,8.1
2022-10-03T04:24:49.937Z,8.0
2022-10-03T04:26:50.201Z,8.0
2022-10-03T04:28:50.021Z,8.0
2022-10-03T04:30:50.111Z,8.0
2022-10-03T04:32:50.101Z,8.0
2022-10-03T04:34:50.417Z,7.9
2022-10-03T04:36:50.537Z,7.9
2022-10-03T04:38:50.752Z,7.9
2022-10-03T04:40:50.852Z,7.8
2022-10-03T04:42:50.655Z,7.8
2022-10-03T04:44:50.743Z,7.7
2022-10-03T04:46:50.130Z,7.7
2022-10-03T04:48:50.182Z,7.7
2022-10-03T04:50:50.140Z,7.6
2022-10-03T04:52:50.201Z,7.6
2022-10-03T04:54:50.215Z,7.6
2022-10-03T04:56:50.532Z,7.6
2022-10-03T04:58:50.526Z,7.5
2022-10-03T05:00:50.830Z,7.6
2022-10-03T05:02:50.741Z,7.5
2022-10-03T05:04:56.038Z,7.4
2022-10-03T05:06:50.350Z,7.4
2022-10-03T05:08:50.441Z,7.4
2022-10-03T05:10:50.412Z,7.3
2022-10-03T05:12:50.349Z,7.3
2022-10-03T05:14:50.436Z,7.3
2022-10-03T05:16:50.927Z,7.3
2022-10-03T05:18:50.125Z,7.2
2022-10-03T05:20:50.035Z,7.3
2022-10-03T05:22:50.061Z,7.3
2022-10-03T05:24:50.149Z,7.3
2022-10-03T05:26:50.409Z,7.3
2022-10-03T05:28:50.512Z,7.3
2022-10-03T05:30:50.399Z,7.3
2022-10-03T05:32:50.552Z,7.4
2022-10-03T05:34:49.985Z,7.4
2022-10-03T05:36:50.296Z,7.3
2022-10-03T05:38:50.188Z,7.4
2022-10-03T05:40:50.179Z,7.4
2022-10-03T05:42:50.073Z,7.4
2022-10-03T05:44:49.990Z,7.4
2022-10-03T05:46:50.364Z,7.4
2022-10-03T05:48:50.492Z,7.6
2022-10-03T05:50:50.403Z,7.6
2022-10-03T05:52:50.386Z,7.7
2022-10-03T05:54:50.616Z,7.8
2022-10-03T05:56:49.966Z,7.8
2022-10-03T05:58:50.027Z,8.0
2022-10-03T06:00:50.030Z,8.0
2022-10-03T06:02:50.674Z,8.0
2022-10-03T06:04:50.497Z,8.1
2022-10-03T06:06:49.960Z,8.1
2022-10-03T06:08:50.249Z,8.2
2022-10-03T06:10:50.175Z,8.2
2022-10-03T06:12:50.287Z,8.3
2022-10-03T06:14:50.256Z,8.4
2022-10-03T06:16:50.154Z,8.4
2022-10-03T06:18:50.275Z,8.4
2022-10-03T06:20:50.055Z,8.4
2022-10-03T06:22:50.222Z,8.5
2022-10-03T06:24:50.065Z,8.6
2022-10-03T06:26:50.389Z,8.7
2022-10-03T06:28:50.372Z,8.7
2022-10-03T06:30:50.592Z,8.7
2022-10-03T06:32:49.932Z,8.8
2022-10-03T06:34:50.541Z,8.9
2022-10-03T06:36:50.642Z,9.0
2022-10-03T06:38:50.787Z,9.1
2022-10-03T06:40:50.728Z,9.1
2022-10-03T06:42:50.374Z,9.1
2022-10-03T06:44:50.663Z,9.2
2022-10-03T06:46:49.962Z,9.3
2022-10-03T06:48:50.119Z,9.4
2022-10-03T06:50:49.969Z,9.5
2022-10-03T06:52:50.087Z,9.5
2022-10-03T06:54:50.026Z,9.6
2022-10-03T06:56:50.775Z,9.7
2022-10-03T06:58:50.085Z,9.8
2022-10-03T07:00:50.059Z,9.8
2022-10-03T07:02:50.682Z,9.8
2022-10-03T07:04:50.250Z,9.9
2022-10-03T07:06:50.959Z,9.9
2022-10-03T07:08:50.063Z,9.9
2022-10-03T07:10:50.880Z,10.0
2022-10-03T07:12:49.934Z,10.1
2022-10-03T07:14:50.187Z,10.1
2022-10-03T07:16:50.658Z,10.2
2022-10-03T07:18:50.831Z,10.2
2022-10-03T07:20:50.600Z,10.2
2022-10-03T07:22:50.732Z,10.2
2022-10-03T07:24:50.090Z,10.2
2022-10-03T07:26:50.464Z,10.3
2022-10-03T07:28:50.601Z,10.3
2022-10-03T07:30:50.780Z,10.4
2022-10-03T07:32:50.760Z,10.5
2022-10-03T07:34:50.124Z,10.6
2022-10-03T07:36:50.499Z,10.6
2022-10-03T07:38:50.657Z,10.6
2022-10-03T07:40:50.702Z,10.7
2022-10-03T07:42:50.508Z,10.8
2022-10-03T07:44:50.578Z,10.9
2022-10-03T07:46:50.671Z,10.9
2022-10-03T07:48:50.580Z,10.9
2022-10-03T07:50:50.543Z,11.0
2022-10-03T07:52:50.720Z,11.0
2022-10-03T07:54:50.810Z,11.0
2022-10-03T07:56:50.169Z,11.0
2022-10-03T07:58:50.160Z,11.1
2022-10-03T08:00:50.136Z,11.2
2022-10-03T08:02:50.363Z,11.3
2022-10-03T08:04:50.084Z,11.4
2022-10-03T08:06:50.434Z,11.4
2022-10-03T08:08:50.700Z,11.5
2022-10-03T08:10:50.735Z,11.5
2022-10-03T08:12:50.615Z,11.6
2022-10-03T08:14:50.845Z,11.6
2022-10-03T08:16:50.190Z,11.6
2022-10-03T08:18:50.246Z,11.6
2022-10-03T08:20:50.101Z,11.7
2022-10-03T08:22:50.322Z,11.7
2022-10-03T08:24:50.480Z,11.7
2022-10-03T08:26:50.144Z,11.7
2022-10-03T08:28:50.320Z,11.8
2022-10-03T08:30:50.481Z,11.8
2022-10-03T08:32:50.662Z,11.9
2022-10-03T08:34:50.283Z,11.9
2022-10-03T08:36:50.541Z,12.0
2022-10-03T08:38:50.444Z,12.0
2022-10-03T08:40:50.632Z,12.1
2022-10-03T08:42:50.272Z,12.2
2022-10-03T08:44:50.341Z,12.2
2022-10-03T08:46:51.068Z,12.2
2022-10-03T08:48:50.028Z,12.2
2022-10-03T08:50:50.197Z,12.2
2022-10-03T08:52:50.182Z,12.3
2022-10-03T08:54:50.304Z,12.3
2022-10-03T08:56:50.642Z,12.3
2022-10-03T08:58:50.787Z,12.3
2022-10-03T09:00:50.789Z,12.3
2022-10-03T09:03:33.312Z,12.3
2022-10-03T09:04:50.729Z,12.3
2022-10-03T09:07:18.837Z,12.3
2022-10-03T09:08:50.884Z,12.4
2022-10-03T09:10:50.871Z,12.4
2022-10-03T09:12:49.950Z,12.5
2022-10-03T09:14:49.995Z,12.5
2022-10-03T09:16:50.268Z,12.6
2022-10-03T09:18:50.313Z,12.6
2022-10-03T09:20:50.232Z,12.6
2022-10-03T09:22:50.457Z,12.8
2022-10-03T09:24:50.351Z,12.9
2022-10-03T09:26:50.511Z,12.9
2022-10-03T09:28:50.576Z,13.0
2022-10-03T09:30:50.515Z,13.0
2022-10-03T09:32:50.562Z,13.0
2022-10-03T09:34:50.361Z,13.0
2022-10-03T09:36:50.708Z,12.9
2022-10-03T09:38:50.761Z,13.0
2022-10-03T09:40:53.966Z,13.0
2022-10-03T09:42:50.071Z,13.0
2022-10-03T09:44:50.046Z,13.0
2022-10-03T09:46:50.570Z,13.1
2022-10-03T09:48:50.752Z,13.2
2022-10-03T09:50:50.615Z,13.2
2022-10-03T09:52:50.906Z,13.2
2022-10-03T09:54:50.796Z,13.4
2022-10-03T09:56:50.026Z,13.4
2022-10-03T09:58:50.682Z,13.4
2022-10-03T10:00:50.844Z,13.4
2022-10-03T10:02:49.954Z,13.4
2022-10-03T10:04:56.914Z,13.4
2022-10-03T10:06:50.261Z,13.4
2022-10-03T10:08:50.391Z,13.4
2022-10-03T10:10:50.373Z,13.4
2022-10-03T10:12:50.296Z,13.5
2022-10-03T10:14:50.198Z,13.5
2022-10-03T10:16:53.774Z,13.5
2022-10-03T10:18:50.627Z,13.5
2022-10-03T10:20:50.448Z,13.6
2022-10-03T10:22:50.680Z,13.6
2022-10-03T10:24:49.964Z,13.6
2022-10-03T10:26:50.392Z,13.6
2022-10-03T10:28:50.340Z,13.6
2022-10-03T10:30:50.254Z,13.7
2022-10-03T10:32:50.363Z,13.7
2022-10-03T10:34:50.032Z,13.8
2022-10-03T10:36:50.440Z,13.8
2022-10-03T10:38:50.594Z,13.8
2022-10-03T10:40:50.349Z,13.9
2022-10-03T10:42:50.454Z,14.0
2022-10-03T10:44:50.277Z,14.1
2022-10-03T10:46:51.188Z,14.1
2022-10-03T10:48:50.188Z,14.1
2022-10-03T10:50:50.819Z,14.2
2022-10-03T10:52:50.880Z,14.2
2022-10-03T10:54:50.876Z,14.2
2022-10-03T10:56:50.542Z,14.2
2022-10-03T10:58:50.598Z,14.2
2022-10-03T11:00:50.510Z,14.2
2022-10-03T11:02:50.725Z,14.2
2022-10-03T11:04:50.542Z,14.2
2022-10-03T11:06:49.915Z,14.2
2022-10-03T11:08:50.051Z,14.2
2022-10-03T11:10:50.878Z,14.2
2022-10-03T11:12:50.839Z,14.2
2022-10-03T11:14:50.613Z,14.3
2022-10-03T11:16:51.022Z,14.3
2022-10-03T11:18:50.070Z,14.4
2022-10-03T11:20:50.065Z,14.4
2022-10-03T11:22:49.985Z,14.5
2022-10-03T11:24:50.788Z,14.5
2022-10-03T11:26:50.208Z,14.5
2022-10-03T11:28:50.400Z,14.4
2022-10-03T11:30:50.690Z,14.4
2022-10-03T11:32:50.754Z,14.4
2022-10-03T11:34:50.078Z,14.4
2022-10-03T11:36:50.587Z,14.4
2022-10-03T11:38:50.803Z,14.4
2022-10-03T11:40:50.798Z,14.3
2022-10-03T11:42:50.714Z,14.3
2022-10-03T11:44:50.741Z,14.3
2022-10-03T11:46:50.254Z,14.3
2022-10-03T11:48:50.391Z,14.3
2022-10-03T11:50:50.368Z,14.3
2022-10-03T11:52:50.400Z,14.3
2022-10-03T11:54:50.362Z,14.3
2022-10-03T11:56:49.978Z,14.4
2022-10-03T11:58:50.195Z,14.3
2022-10-03T12:00:50.100Z,14.3
2022-10-03T12:02:50.834Z,14.3
2022-10-03T12:04:50.486Z,14.3
2022-10-03T12:06:50.630Z,14.5
2022-10-03T12:08:50.773Z,14.6
2022-10-03T12:10:50.802Z,14.6
2022-10-03T12:12:50.730Z,14.8
2022-10-03T12:14:50.835Z,14.8
2022-10-03T12:16:50.584Z,14.9
2022-10-03T12:18:50.783Z,14.9
2022-10-03T12:20:50.655Z,14.9
2022-10-03T12:22:50.735Z,15.0
2022-10-03T12:24:50.585Z,15.0
2022-10-03T12:26:50.074Z,15.0
2022-10-03T12:28:50.163Z,15.0
2022-10-03T12:30:50.036Z,15.0
2022-10-03T12:32:50.240Z,15.0
2022-10-03T12:34:50.082Z,15.1
2022-10-03T12:36:50.239Z,15.1
2022-10-03T12:38:51.674Z,15.0
2022-10-03T12:40:50.749Z,15.1
2022-10-03T12:42:50.838Z,15.1
2022-10-03T12:44:50.743Z,15.1
2022-10-03T12:46:50.163Z,15.1
2022-10-03T12:48:50.361Z,15.1
2022-10-03T12:50:50.239Z,15.2
2022-10-03T12:52:50.327Z,15.2
2022-10-03T12:54:50.206Z,15.2
2022-10-03T12:56:50.789Z,15.2
2022-10-03T12:58:50.050Z,15.2
2022-10-03T13:00:50.232Z,15.2
2022-10-03T13:02:50.737Z,15.2
2022-10-03T13:04:50.385Z,15.4
2022-10-03T13:07:05.083Z,15.4
2022-10-03T13:08:50.193Z,15.4
2022-10-03T13:10:50.114Z,15.4
2022-10-03T13:12:50.238Z,15.4
2022-10-03T13:14:50.285Z,15.5
2022-10-03T13:16:50.609Z,15.5
2022-10-03T13:18:50.720Z,15.5
2022-10-03T13:20:50.834Z,15.4
2022-10-03T13:22:49.927Z,15.3
2022-10-03T13:24:50.761Z,15.3
2022-10-03T13:26:50.909Z,15.3
2022-10-03T13:28:50.804Z,15.2
2022-10-03T13:30:51.425Z,15.1
2022-10-03T13:32:50.580Z,15.0
2022-10-03T13:34:50.108Z,15.0
2022-10-03T13:36:50.593Z,15.0
2022-10-03T13:38:50.336Z,15.0
2022-10-03T13:40:50.401Z,15.0
2022-10-03T13:42:50.370Z,14.9
2022-10-03T13:44:50.479Z,14.9
2022-10-03T13:46:50.929Z,14.9
2022-10-03T13:48:50.813Z,14.9
2022-10-03T13:50:50.940Z,15.0
2022-10-03T13:52:49.955Z,15.1
2022-10-03T13:54:50.886Z,15.2
2022-10-03T13:56:50.162Z,15.2
2022-10-03T13:58:50.140Z,15.3
2022-10-03T14:00:50.381Z,15.5
2022-10-03T14:02:50.727Z,15.5
2022-10-03T14:04:50.510Z,15.5
2022-10-03T14:06:50.829Z,15.7
2022-10-03T14:08:50.849Z,15.8
2022-10-03T14:10:50.873Z,16.0
2022-10-03T14:12:56.785Z,16.1
2022-10-03T14:14:50.856Z,16.1
2022-10-03T14:16:50.433Z,16.2
2022-10-03T14:18:50.292Z,16.4
2022-10-03T14:20:50.206Z,16.5
2022-10-03T14:22:49.997Z,16.5
2022-10-03T14:24:49.919Z,16.5
2022-10-03T14:26:50.042Z,16.5
2022-10-03T14:28:50.001Z,16.5
2022-10-03T14:31:07.879Z,16.5
2022-10-03T14:32:50.591Z,16.6
2022-10-03T14:34:50.146Z,16.6
2022-10-03T14:36:50.337Z,16.6
2022-10-03T14:38:50.231Z,16.6
2022-10-03T14:40:50.295Z,16.6
2022-10-03T14:42:50.073Z,16.6
2022-10-03T14:44:50.044Z,16.6
2022-10-03T14:46:50.310Z,16.5
2022-10-03T14:48:50.476Z,16.4
2022-10-03T14:50:50.283Z,16.4
2022-10-03T14:52:50.137Z,16.4
2022-10-03T14:54:50.254Z,16.3
2022-10-03T14:56:50.430Z,16.2
2022-10-03T14:58:50.523Z,16.1
2022-10-03T15:00:50.400Z,16.0
2022-10-03T15:02:51.068Z,15.9
2022-10-03T15:04:50.831Z,15.9
2022-10-03T15:06:50.218Z,15.8
2022-10-03T15:08:50.249Z,15.8
2022-10-03T15:10:50.241Z,15.7
2022-10-03T15:12:50.134Z,15.7
2022-10-03T15:14:50.150Z,15.7
2022-10-03T15:16:50.432Z,15.6
2022-10-03T15:18:50.539Z,15.6
2022-10-03T15:20:50.550Z,15.6
2022-10-03T15:22:50.536Z,15.5
2022-10-03T15:24:50.535Z,15.4
2022-10-03T15:26:50.593Z,15.4
2022-10-03T15:28:50.500Z,15.4
2022-10-03T15:30:50.433Z,15.4
2022-10-03T15:32:50.718Z,15.2
2022-10-03T15:34:50.032Z,15.2
2022-10-03T15:36:50.367Z,15.1
2022-10-03T15:38:50.258Z,15.0
2022-10-03T15:40:50.241Z,15.0
2022-10-03T15:42:50.087Z,15.0
2022-10-03T15:44:50.268Z,14.9
2022-10-03T15:46:50.710Z,14.8
2022-10-03T15:48:50.814Z,14.8
2022-10-03T15:50:50.902Z,14.8
2022-10-03T15:52:50.957Z,14.7
2022-10-03T15:54:50.883Z,14.7
2022-10-03T15:56:50.238Z,14.6
2022-10-03T15:58:50.395Z,14.6
2022-10-03T16:00:50.415Z,14.6
2022-10-03T16:02:50.553Z,14.5
2022-10-03T16:04:50.019Z,14.4
2022-10-03T16:06:50.403Z,14.4
2022-10-03T16:08:50.465Z,14.3
2022-10-03T16:10:50.379Z,14.3
2022-10-03T16:12:50.393Z,14.3
2022-10-03T16:14:50.265Z,14.2
2022-10-03T16:16:50.387Z,14.2
2022-10-03T16:18:50.396Z,14.2
2022-10-03T16:20:50.745Z,14.1
2022-10-03T16:22:50.634Z,14.1
2022-10-03T16:24:50.797Z,14.0
2022-10-03T16:26:50.195Z,14.0
2022-10-03T16:28:50.073Z,14.0
2022-10-03T16:30:50.062Z,13.9
2022-10-03T16:32:50.011Z,13.9
2022-10-03T16:34:50.669Z,13.9
2022-10-03T16:36:50.825Z,13.8
2022-10-03T16:38:50.745Z,13.8
2022-10-03T16:40:50.850Z,13.8
2022-10-03T16:42:50.803Z,13.7
2022-10-03T16:44:49.886Z,13.7
2022-10-03T16:46:50.340Z,13.7
2022-10-03T16:48:50.403Z,13.6
2022-10-03T16:50:50.245Z,13.6
2022-10-03T16:52:50.176Z,13.6
2022-10-03T16:54:50.858Z,13.5
2022-10-03T16:56:50.237Z,13.5
2022-10-03T16:58:50.345Z,13.5
2022-10-03T17:01:27.138Z,13.4
2022-10-03T17:02:50.539Z,13.4
2022-10-03T17:04:50.225Z,13.4
2022-10-03T17:06:50.482Z,13.4
2022-10-03T17:08:50.619Z,13.4
2022-10-03T17:10:50.559Z,13.3
2022-10-03T17:12:50.767Z,13.3
2022-10-03T17:14:50.729Z,13.3
2022-10-03T17:16:50.154Z,13.2
2022-10-03T17:18:50.255Z,13.2
2022-10-03T17:20:50.301Z,13.2
2022-10-03T17:22:50.286Z,13.2
2022-10-03T17:24:50.232Z,13.2
2022-10-03T17:26:50.532Z,13.1
2022-10-03T17:28:50.424Z,13.1
2022-10-03T17:30:50.667Z,13.0
2022-10-03T17:32:53.926Z,13.0
2022-10-03T17:34:50.493Z,13.0
2022-10-03T17:36:50.816Z,13.0
2022-10-03T17:38:51.046Z,13.0
2022-10-03T17:40:50.100Z,13.0
2022-10-03T17:42:50.097Z,13.0
2022-10-03T17:44:50.230Z,13.0
2022-10-03T17:46:50.444Z,12.9
2022-10-03T17:48:50.557Z,12.9
2022-10-03T17:50:50.666Z,12.8
2022-10-03T17:52:50.783Z,12.8
2022-10-03T17:54:50.862Z,12.8
2022-10-03T17:56:50.058Z,12.8
2022-10-03T17:58:50.225Z,12.8
2022-10-03T18:00:50.752Z,12.8
2022-10-03T18:02:50.777Z,12.8
2022-10-03T18:04:50.291Z,12.8
2022-10-03T18:06:50.518Z,12.7
2022-10-03T18:08:50.515Z,12.7
2022-10-03T18:10:50.461Z,12.7
2022-10-03T18:12:50.381Z,12.7
2022-10-03T18:14:50.561Z,12.6
2022-10-03T18:16:50.798Z,12.6
2022-10-03T18:18:50.192Z,12.6
2022-10-03T18:20:50.789Z,12.6
2022-10-03T18:22:50.838Z,12.6
2022-10-03T18:24:50.784Z,12.6
2022-10-03T18:26:50.192Z,12.5
2022-10-03T18:28:50.642Z,12.5
2022-10-03T18:30:50.666Z,12.5
2022-10-03T18:32:50.605Z,12.5
2022-10-03T18:34:50.265Z,12.4
2022-10-03T18:36:50.829Z,12.4
2022-10-03T18:38:50.644Z,12.4
2022-10-03T18:40:50.593Z,12.4
2022-10-03T18:42:50.612Z,12.4
2022-10-03T18:44:50.816Z,12.3
2022-10-03T18:46:50.146Z,12.2
2022-10-03T18:49:34.199Z,12.2
2022-10-03T18:50:50.327Z,12.2
2022-10-03T18:52:50.308Z,12.2
2022-10-03T18:54:50.416Z,12.1
2022-10-03T18:56:50.637Z,12.0
2022-10-03T18:58:50.539Z,12.0
2022-10-03T19:00:51.069Z,12.0
2022-10-03T19:02:50.700Z,11.9
2022-10-03T19:04:50.237Z,11.8
2022-10-03T19:06:50.379Z,11.8
2022-10-03T19:08:50.376Z,11.7
2022-10-03T19:10:50.463Z,11.7
2022-10-03T19:12:50.592Z,11.6
2022-10-03T19:14:50.526Z,11.5
2022-10-03T19:16:51.024Z,11.5
2022-10-03T19:18:50.073Z,11.4
2022-10-03T19:20:50.105Z,11.4
2022-10-03T19:22:50.096Z,11.3
2022-10-03T19:24:59.684Z,11.2
2022-10-03T19:26:49.996Z,11.2
2022-10-03T19:28:50.089Z,11.1
2022-10-03T19:30:50.155Z,11.1
2022-10-03T19:32:50.096Z,11.0
2022-10-03T19:34:50.633Z,11.0
2022-10-03T19:36:49.949Z,11.0
2022-10-03T19:38:50.038Z,10.9
2022-10-03T19:40:50.796Z,10.8
2022-10-03T19:42:49.905Z,10.8
2022-10-03T19:44:50.747Z,10.7
2022-10-03T19:46:50.244Z,10.7
2022-10-03T19:48:50.219Z,10.6
2022-10-03T19:50:50.348Z,10.6
2022-10-03T19:52:50.389Z,10.5
2022-10-03T19:54:50.472Z,10.5
2022-10-03T19:56:50.029Z,10.4
2022-10-03T19:58:50.794Z,10.4
2022-10-03T20:00:51.211Z,10.3
2022-10-03T20:02:50.027Z,10.3
2022-10-03T20:04:50.267Z,10.3
2022-10-03T20:06:50.536Z,10.2
2022-10-03T20:08:50.543Z,10.2
2022-10-03T20:10:50.573Z,10.1
2022-10-03T20:12:50.648Z,10.1
2022-10-03T20:14:50.788Z,10.0
2022-10-03T20:16:50.403Z,10.0
2022-10-03T20:18:50.569Z,9.9
2022-10-03T20:20:50.445Z,9.8
2022-10-03T20:22:50.515Z,9.8
2022-10-03T20:24:50.562Z,9.8
2022-10-03T20:26:50.072Z,9.8
2022-10-03T20:28:50.075Z,9.7
2022-10-03T20:30:50.210Z,9.6
2022-10-03T20:32:50.254Z,9.6
2022-10-03T20:34:50.940Z,9.6
2022-10-03T20:36:50.250Z,9.5
2022-10-03T20:38:50.528Z,9.5
2022-10-03T20:40:50.456Z,9.4
2022-10-03T20:42:50.464Z,9.3
2022-10-03T20:44:50.381Z,9.3
2022-10-03T20:46:50.897Z,9.3
2022-10-03T20:48:50.866Z,9.2
2022-10-03T20:50:50.854Z,9.2
2022-10-03T20:52:50.130Z,9.2
2022-10-03T20:54:50.921Z,9.1
2022-10-03T20:56:50.444Z,9.1
2022-10-03T20:58:51.582Z,9.0
2022-10-03T21:00:51.017Z,9.0
2022-10-03T21:02:50.193Z,8.9
2022-10-03T21:04:51.030Z,8.9
2022-10-03T21:06:50.644Z,8.8
2022-10-03T21:08:50.537Z,8.7
2022-10-03T21:10:50.570Z,8.7
2022-10-03T21:12:50.514Z,8.7
2022-10-03T21:14:50.762Z,8.6
2022-10-03T21:16:50.243Z,8.5
2022-10-03T21:18:50.118Z,8.5
2022-10-03T21:20:50.135Z,8.4
2022-10-03T21:22:50.137Z,8.4
2022-10-03T21:24:50.078Z,8.4
2022-10-03T21:26:50.148Z,8.3
2022-10-03T21:28:50.059Z,8.2
2022-10-03T21:30:50.007Z,8.2
2022-10-03T21:32:50.193Z,8.2
2022-10-03T21:34:49.936Z,8.2
2022-10-03T21:36:50.217Z,8.2
2022-10-03T21:38:50.106Z,8.2
2022-10-03T21:40:50.257Z,8.1
2022-10-03T21:42:50.170Z,8.0
2022-10-03T21:44:50.143Z,8.0
2022-10-03T21:46:50.360Z,7.9
2022-10-03T21:48:50.202Z,7.9
2022-10-03T21:50:50.044Z,7.9
2022-10-03T21:52:49.938Z,7.8
2022-10-03T21:54:50.018Z,7.8
2022-10-03T21:56:50.325Z,7.7
2022-10-03T21:58:50.521Z,7.6
2022-10-03T22:00:50.750Z,7.6
2022-10-03T22:02:50.797Z,7.6
2022-10-03T22:04:50.157Z,7.6
2022-10-03T22:06:50.498Z,7.5
2022-10-03T22:08:50.614Z,7.5
2022-10-03T22:10:50.516Z,7.5
2022-10-03T22:12:50.547Z,7.5
2022-10-03T22:14:50.467Z,7.4
2022-10-03T22:16:50.612Z,7.4
2022-10-03T22:18:50.432Z,7.3
2022-10-03T22:20:50.617Z,7.3
2022-10-03T22:22:50.669Z,7.3
2022-10-03T22:24:50.869Z,7.2
2022-10-03T22:26:49.968Z,7.2
2022-10-03T22:28:50.892Z,7.2
2022-10-03T22:30:51.031Z,7.1
2022-10-03T22:32:50.763Z,7.1
2022-10-03T22:34:50.195Z,7.1
2022-10-03T22:36:50.292Z,7.0
2022-10-03T22:38:50.368Z,7.0
2022-10-03T22:40:50.589Z,6.9
2022-10-03T22:42:50.610Z,6.9
2022-10-03T22:44:50.627Z,6.9
2022-10-03T22:46:50.893Z,6.9
2022-10-03T22:48:50.048Z,6.9
2022-10-03T22:50:50.237Z,6.8
2022-10-03T22:52:50.267Z,6.8
2022-10-03T22:54:50.345Z,6.8
2022-10-03T22:56:50.723Z,6.8
2022-10-03T22:58:50.824Z,6.7
2022-10-03T23:00:50.672Z,6.7
2022-10-03T23:02:51.118Z,6.7
2022-10-03T23:04:50.819Z,6.7
2022-10-03T23:06:50.050Z,6.7
2022-10-03T23:08:50.092Z,6.7
2022-10-03T23:10:50.207Z,6.6
2022-10-03T23:12:50.292Z,6.6
2022-10-03T23:14:50.162Z,6.6
2022-10-03T23:16:50.327Z,6.6
2022-10-03T23:18:50.475Z,6.6
2022-10-03T23:20:50.335Z,6.5
2022-10-03T23:22:50.172Z,6.5
2022-10-03T23:24:50.117Z,6.4
2022-10-03T23:26:50.460Z,6.4
2022-10-03T23:28:50.453Z,6.4
2022-10-03T23:30:50.843Z,6.4
2022-10-03T23:32:50.024Z,6.4
2022-10-03T23:34:50.617Z,6.4
2022-10-03T23:36:50.145Z,6.4
2022-10-03T23:38:50.074Z,6.4
2022-10-03T23:40:50.072Z,6.4
2022-10-03T23:42:50.147Z,6.3
2022-10-03T23:44:50.143Z,6.3
2022-10-03T23:46:50.671Z,6.3
2022-10-03T23:48:50.578Z,6.3
2022-10-03T23:50:50.546Z,6.3
2022-10-03T23:52:50.591Z,6.3
2022-10-03T23:54:50.659Z,6.3
2022-10-03T23:56:50.829Z,6.2
2022-10-03T23:58:50.892Z,6.2
